createdAt,value
2022-09-17T00:08:20.560Z,8.1
2022-09-17T00:20:20.518Z,8.1
2022-09-17T00:32:20.539Z,8.2
2022-09-17T00:44:20.539Z,8.2
2022-09-17T00:56:20.528Z,8.4
2022-09-17T01:08:21.522Z,8.5
2022-09-17T01:20:20.519Z,8.4
2022-09-17T01:32:20.510Z,8.5
2022-09-17T01:44:20.515Z,8.4
2022-09-17T01:56:20.679Z,8.4
2022-09-17T02:08:20.935Z,8.5
2022-09-17T02:20:22.898Z,8.5
2022-09-17T02:32:20.516Z,8.6
2022-09-17T02:44:20.530Z,8.6
2022-09-17T02:56:20.542Z,8.5
2022-09-17T03:08:20.988Z,8.4
2022-09-17T03:20:20.531Z,8.3
2022-09-17T03:32:20.524Z,8.3
2022-09-17T03:44:20.970Z,8.3
2022-09-17T03:56:20.544Z,8.3
2022-09-17T04:08:21.001Z,8.4
2022-09-17T04:20:20.520Z,8.4
2022-09-17T04:32:20.511Z,8.4
2022-09-17T04:44:20.526Z,8.5
2022-09-17T04:56:20.507Z,8.4
2022-09-17T05:08:20.583Z,8.4
2022-09-17T05:20:21.486Z,8.4
2022-09-17T05:32:20.504Z,8.4
2022-09-17T05:44:20.558Z,8.5
2022-09-17T05:56:20.544Z,8.5
2022-09-17T06:08:21.012Z,8.5
2022-09-17T06:20:20.544Z,8.6
2022-09-17T06:32:20.542Z,8.6
2022-09-17T06:44:20.533Z,8.8
2022-09-17T06:56:20.559Z,8.9
2022-09-17T07:08:20.552Z,9.3
2022-09-17T07:20:21.067Z,9.3
2022-09-17T07:32:20.605Z,9.7
2022-09-17T07:44:20.549Z,10.5
2022-09-17T07:56:20.545Z,11.2
2022-09-17T08:08:21.368Z,10.7
2022-09-17T08:20:20.538Z,8.5
2022-09-17T08:32:20.548Z,8.0
2022-09-17T08:44:20.501Z,8.9
2022-09-17T08:56:20.554Z,9.5
2022-09-17T09:08:20.554Z,10.5
2022-09-17T09:20:20.593Z,10.8
2022-09-17T09:32:20.624Z,11.0
2022-09-17T09:44:20.535Z,11.1
2022-09-17T09:56:20.551Z,12.0
2022-09-17T10:08:20.497Z,12.0
2022-09-17T10:20:23.146Z,12.3
2022-09-17T10:32:20.553Z,12.7
2022-09-17T10:44:20.539Z,12.3
2022-09-17T10:56:20.541Z,12.6
2022-09-17T11:08:20.557Z,12.2
2022-09-17T11:20:20.483Z,11.4
2022-09-17T11:32:20.557Z,12.3
2022-09-17T11:44:20.534Z,13.4
2022-09-17T11:56:20.513Z,12.7
2022-09-17T12:08:20.531Z,12.6
2022-09-17T12:20:20.541Z,13.0
2022-09-17T12:32:20.464Z,13.3
2022-09-17T12:44:20.492Z,13.7
2022-09-17T12:56:20.558Z,13.7
2022-09-17T13:08:20.588Z,13.0
2022-09-17T13:20:20.543Z,12.1
2022-09-17T13:32:20.639Z,11.7
2022-09-17T13:44:20.505Z,11.6
2022-09-17T13:56:21.030Z,11.3
2022-09-17T14:08:20.630Z,11.5
2022-09-17T14:20:20.500Z,12.0
2022-09-17T14:32:20.576Z,11.8
2022-09-17T14:44:20.547Z,10.1
2022-09-17T14:56:20.500Z,8.5
2022-09-17T15:08:20.578Z,8.9
2022-09-17T15:20:20.688Z,9.6
2022-09-17T15:32:20.740Z,9.9
2022-09-17T15:44:30.171Z,10.0
2022-09-17T15:56:20.938Z,10.5
2022-09-17T16:08:20.781Z,10.0
2022-09-17T16:20:20.779Z,8.7
2022-09-17T16:32:21.217Z,8.8
2022-09-17T16:44:20.736Z,8.8
2022-09-17T16:56:21.332Z,8.7
2022-09-17T17:08:20.670Z,8.6
2022-09-17T17:20:21.346Z,8.5
2022-09-17T17:32:20.790Z,8.4
2022-09-17T17:44:21.058Z,8.3
2022-09-17T17:56:21.041Z,8.2
2022-09-17T18:08:21.290Z,8.0
2022-09-17T18:20:20.544Z,7.9
2022-09-17T18:32:20.532Z,7.8
2022-09-17T18:44:20.575Z,7.8
2022-09-17T18:56:20.568Z,8.0
2022-09-17T19:08:20.518Z,8.2
2022-09-17T19:20:20.528Z,8.3
2022-09-17T19:32:20.489Z,8.5
2022-09-17T19:44:20.525Z,8.5
2022-09-17T19:56:20.529Z,8.7
2022-09-17T20:08:20.610Z,8.6
2022-09-17T20:20:20.483Z,8.7
2022-09-17T20:32:20.534Z,8.8
2022-09-17T20:44:20.556Z,8.8
2022-09-17T20:56:20.477Z,8.9
2022-09-17T21:08:21.274Z,8.9
2022-09-17T21:20:20.506Z,8.9
2022-09-17T21:32:20.530Z,8.9
2022-09-17T21:44:20.494Z,9.0
2022-09-17T21:56:20.541Z,8.9
2022-09-17T22:08:20.539Z,9.0
2022-09-17T22:20:20.518Z,9.1
2022-09-17T22:32:20.530Z,9.1
2022-09-17T22:44:20.543Z,9.1
2022-09-17T22:56:20.518Z,9.1
2022-09-17T23:08:20.523Z,9.2
2022-09-17T23:20:20.553Z,9.2
2022-09-17T23:32:20.509Z,9.2
2022-09-17T23:44:20.547Z,9.1
2022-09-17T23:56:20.506Z,9.0
